^^
Datos históricos de la estación: Murcia-Puente Tocinos
Diario Informe para Abril 24, 2019 Unidades:  Ambas    Ingés   Métrico
Diario Semanal Mensual Anual
  Máxima: Mínima: Promedio:
Temperatura: 93.9 °F /  34.4 °C 73.9 °F /  23.3 °C 84.6 °F /  29.2 °C
Punto de rocio: 66.9 °F /  19.4 °C 48.4 °F /  9.1 °C 56.8 °F /  13.8 °C
Humedad: 63% 22% 41%
Velocidad viento: 12.3mph /  19.8km/h - 5.7mph /  9.1km/h
Racha viento: 21.9mph /  35.2km/h - -
Viento- - ESE
Presión: 30 in /  1014.9 hPa 29.9 in /  1011.9 hPa -
Precipitación: 0 in /  0.0 mm    
 
 
Tabla de datos para Abril 24, 2019
Hora Temperatura Punto de rocio Presión Viento Velocidad viento Racha viento Humedad Intensidad lluvia(por hora) Nubes
00:04 81.9 °F /  27.7 °C 59.2 °F /  15.1 °C 30in /  1014.9hPa NE 4mph /  6.4km/h 6.9mph /  11.1km/h 46% 0in /  0.0mm
00:09 81.7 °F /  27.6 °C 58.8 °F /  14.9 °C 30in /  1014.9hPa NE 4.7mph /  7.6km/h 5.8mph /  9.3km/h 46% 0in /  0.0mm
00:14 81.7 °F /  27.6 °C 58.8 °F /  14.9 °C 30in /  1014.9hPa ENE 4.7mph /  7.6km/h 5.8mph /  9.3km/h 46% 0in /  0.0mm
00:19 81.3 °F /  27.4 °C 59.2 °F /  15.1 °C 30in /  1014.8hPa ENE 4.3mph /  6.9km/h 5.8mph /  9.3km/h 47% 0in /  0.0mm
00:24 81.3 °F /  27.4 °C 59.2 °F /  15.1 °C 30in /  1014.8hPa NE 4.3mph /  6.9km/h 4.6mph /  7.4km/h 47% 0in /  0.0mm
00:29 81.1 °F /  27.3 °C 59 °F /  15 °C 30in /  1014.8hPa ENE 3.6mph /  5.8km/h 5.8mph /  9.3km/h 47% 0in /  0.0mm
00:34 81 °F /  27.2 °C 59.4 °F /  15.2 °C 30in /  1014.7hPa NE 3.6mph /  5.8km/h 4.6mph /  7.4km/h 48% 0in /  0.0mm
00:39 81 °F /  27.2 °C 59.4 °F /  15.2 °C 30in /  1014.7hPa NNO 2.9mph /  4.7km/h 1.4mph /  2.3km/h 48% 0in /  0.0mm
00:44 81 °F /  27.2 °C 59.4 °F /  15.2 °C 30in /  1014.7hPa NO 2.9mph /  4.7km/h 4mph /  6.4km/h 48% 0in /  0.0mm
00:49 80.8 °F /  27.1 °C 59.4 °F /  15.2 °C 30in /  1014.8hPa ONO 2.4mph /  3.9km/h 3.5mph /  5.6km/h 48% 0in /  0.0mm
00:54 80.8 °F /  27.1 °C 59.4 °F /  15.2 °C 30in /  1014.8hPa NO 2.4mph /  3.9km/h 2.4mph /  3.9km/h 48% 0in /  0.0mm
00:59 80.8 °F /  27.1 °C 59.4 °F /  15.2 °C 30in /  1014.8hPa NNE 2.4mph /  3.9km/h 5.8mph /  9.3km/h 48% 0in /  0.0mm
01:04 80.6 °F /  27 °C 59.7 °F /  15.4 °C 30in /  1014.6hPa NNO 2.4mph /  3.9km/h 4.6mph /  7.4km/h 49% 0in /  0.0mm
01:09 80.4 °F /  26.9 °C 59.5 °F /  15.3 °C 30in /  1014.6hPa Oeste 2.9mph /  4.7km/h 3.6mph /  5.8km/h 49% 0in /  0.0mm
01:14 80.4 °F /  26.9 °C 59.5 °F /  15.3 °C 30in /  1014.6hPa NNO 2.9mph /  4.7km/h 4.6mph /  7.4km/h 49% 0in /  0.0mm
01:19 80.4 °F /  26.9 °C 59.5 °F /  15.3 °C 30in /  1014.6hPa NO 2.4mph /  3.9km/h 2.4mph /  3.9km/h 49% 0in /  0.0mm
01:24 80.2 °F /  26.8 °C 59.4 °F /  15.2 °C 30in /  1014.6hPa OSO 2.4mph /  3.9km/h 4.6mph /  7.4km/h 49% 0in /  0.0mm
01:29 80.2 °F /  26.8 °C 59.4 °F /  15.2 °C 30in /  1014.6hPa OSO 2.4mph /  3.9km/h 3.1mph /  5km/h 49% 0in /  0.0mm
01:34 80.4 °F /  26.9 °C 59.5 °F /  15.3 °C 30in /  1014.7hPa OSO 2.4mph /  3.9km/h 2.9mph /  4.7km/h 49% 0in /  0.0mm
01:39 80.4 °F /  26.9 °C 59.5 °F /  15.3 °C 30in /  1014.7hPa OSO 2mph /  3.2km/h 2.3mph /  3.7km/h 49% 0in /  0.0mm
01:44 80.4 °F /  26.9 °C 59.5 °F /  15.3 °C 30in /  1014.7hPa OSO 2mph /  3.2km/h   49% 0in /  0.0mm
01:49 80.4 °F /  26.9 °C 58.8 °F /  14.9 °C 30in /  1014.6hPa OSO 1.4mph /  2.3km/h 3.5mph /  5.6km/h 48% 0in /  0.0mm
01:54 80.4 °F /  26.9 °C 58.8 °F /  14.9 °C 30in /  1014.6hPa OSO 1.4mph /  2.3km/h 3.5mph /  5.6km/h 48% 0in /  0.0mm
01:59 80.4 °F /  26.9 °C 58.8 °F /  14.9 °C 30in /  1014.6hPa OSO 2mph /  3.2km/h 2.4mph /  3.9km/h 48% 0in /  0.0mm
02:04 80.4 °F /  26.9 °C 58.8 °F /  14.9 °C 30in /  1014.5hPa ENE 2mph /  3.2km/h 2.3mph /  3.7km/h 48% 0in /  0.0mm
02:09 80.4 °F /  26.9 °C 58.8 °F /  14.9 °C 30in /  1014.5hPa ENE 1.8mph /  2.9km/h 3.5mph /  5.6km/h 48% 0in /  0.0mm
02:14 80.4 °F /  26.9 °C 58.8 °F /  14.9 °C 30in /  1014.5hPa ENE 1.8mph /  2.9km/h 2.3mph /  3.7km/h 48% 0in /  0.0mm
02:19 80.4 °F /  26.9 °C 58.8 °F /  14.9 °C 30in /  1014.5hPa ENE 1.4mph /  2.3km/h 1.4mph /  2.3km/h 48% 0in /  0.0mm
02:24 80.2 °F /  26.8 °C 59.4 °F /  15.2 °C 30in /  1014.5hPa ENE 1.4mph /  2.3km/h   49% 0in /  0.0mm
02:29 80.1 °F /  26.7 °C 59.7 °F /  15.4 °C 30in /  1014.5hPa Calm     50% 0in /  0.0mm
02:34 79.7 °F /  26.5 °C 59.4 °F /  15.2 °C 30in /  1014.5hPa Calm   3.1mph /  5km/h 50% 0in /  0.0mm
02:39 79.5 °F /  26.4 °C 59.7 °F /  15.4 °C 30in /  1014.5hPa SSE 1.4mph /  2.3km/h 4.6mph /  7.4km/h 51% 0in /  0.0mm
02:44 79.5 °F /  26.4 °C 59.7 °F /  15.4 °C 30in /  1014.5hPa SSE 1.4mph /  2.3km/h 2.3mph /  3.7km/h 51% 0in /  0.0mm
02:49 79.5 °F /  26.4 °C 59.7 °F /  15.4 °C 30in /  1014.5hPa NO 1.4mph /  2.3km/h 3.5mph /  5.6km/h 51% 0in /  0.0mm
02:54 79.3 °F /  26.3 °C 59.5 °F /  15.3 °C 30in /  1014.5hPa NO 1.4mph /  2.3km/h   51% 0in /  0.0mm
02:59 79.2 °F /  26.2 °C 59.5 °F /  15.3 °C 30in /  1014.5hPa Calm     51% 0in /  0.0mm
03:04 79.2 °F /  26.2 °C 59.5 °F /  15.3 °C 30in /  1014.4hPa Calm     51% 0in /  0.0mm
03:09 79.2 °F /  26.2 °C 59.5 °F /  15.3 °C 30in /  1014.4hPa Calm   3.5mph /  5.6km/h 51% 0in /  0.0mm
03:14 79 °F /  26.1 °C 59.4 °F /  15.2 °C 30in /  1014.4hPa Calm   3.5mph /  5.6km/h 51% 0in /  0.0mm
03:19 79 °F /  26.1 °C 59.4 °F /  15.2 °C 30in /  1014.3hPa Este 1.4mph /  2.3km/h 3.1mph /  5km/h 51% 0in /  0.0mm
03:24 78.8 °F /  26 °C 59.2 °F /  15.1 °C 30in /  1014.3hPa Este 1.4mph /  2.3km/h   51% 0in /  0.0mm
03:29 78.6 °F /  25.9 °C 59.5 °F /  15.3 °C 30in /  1014.3hPa Este 1.4mph /  2.3km/h   52% 0in /  0.0mm
03:34 78.4 °F /  25.8 °C 59.4 °F /  15.2 °C 30in /  1014.2hPa SSE 1.4mph /  2.3km/h 2.4mph /  3.9km/h 52% 0in /  0.0mm
03:39 78.4 °F /  25.8 °C 59.4 °F /  15.2 °C 30in /  1014.2hPa SSE 1.8mph /  2.9km/h   52% 0in /  0.0mm
03:44 78.4 °F /  25.8 °C 59.4 °F /  15.2 °C 30in /  1014.2hPa SE 1.8mph /  2.9km/h 4mph /  6.4km/h 52% 0in /  0.0mm
03:49 78.4 °F /  25.8 °C 59.4 °F /  15.2 °C 30in /  1014.2hPa Sur 1.8mph /  2.9km/h 4.6mph /  7.4km/h 52% 0in /  0.0mm
03:54 78.3 °F /  25.7 °C 59.2 °F /  15.1 °C 30in /  1014.2hPa Sur 1.8mph /  2.9km/h 4.7mph /  7.6km/h 52% 0in /  0.0mm
03:59 78.3 °F /  25.7 °C 58.6 °F /  14.8 °C 30in /  1014.2hPa SSE 3.1mph /  5km/h 4.6mph /  7.4km/h 51% 0in /  0.0mm
04:04 78.4 °F /  25.8 °C 58.8 °F /  14.9 °C 29.9in /  1014.1hPa Sur 3.1mph /  5km/h 6.2mph /  10km/h 51% 0in /  0.0mm
04:09 78.4 °F /  25.8 °C 58.3 °F /  14.6 °C 29.9in /  1014.1hPa SSO 4.3mph /  6.9km/h 5.9mph /  9.5km/h 50% 0in /  0.0mm
04:14 78.4 °F /  25.8 °C 57.7 °F /  14.3 °C 29.9in /  1014.1hPa SO 4.3mph /  6.9km/h 5.8mph /  9.3km/h 49% 0in /  0.0mm
04:19 78.4 °F /  25.8 °C 57.7 °F /  14.3 °C 30in /  1014.2hPa SO 4.3mph /  6.9km/h 5.8mph /  9.3km/h 49% 0in /  0.0mm
04:24 78.6 °F /  25.9 °C 57.9 °F /  14.4 °C 30in /  1014.2hPa SO 4.3mph /  6.9km/h 6.9mph /  11.1km/h 49% 0in /  0.0mm
04:29 78.6 °F /  25.9 °C 57.9 °F /  14.4 °C 30in /  1014.2hPa OSO 4.3mph /  6.9km/h 4.6mph /  7.4km/h 49% 0in /  0.0mm
04:34 78.6 °F /  25.9 °C 57.9 °F /  14.4 °C 29.9in /  1014.1hPa SO 4.3mph /  6.9km/h 4.6mph /  7.4km/h 49% 0in /  0.0mm
04:39 78.6 °F /  25.9 °C 57.9 °F /  14.4 °C 29.9in /  1014.1hPa SO 2.9mph /  4.7km/h 2.9mph /  4.7km/h 49% 0in /  0.0mm
04:44 78.4 °F /  25.8 °C 57.7 °F /  14.3 °C 29.9in /  1014.1hPa SO 2.9mph /  4.7km/h 3.5mph /  5.6km/h 49% 0in /  0.0mm
04:49 78.3 °F /  25.7 °C 57 °F /  13.9 °C 29.9in /  1014.0hPa Oeste 1.8mph /  2.9km/h 4mph /  6.4km/h 48% 0in /  0.0mm
04:54 78.1 °F /  25.6 °C 56.8 °F /  13.8 °C 29.9in /  1014.0hPa Oeste 1.8mph /  2.9km/h 3.5mph /  5.6km/h 48% 0in /  0.0mm
04:59 77.7 °F /  25.4 °C 56.5 °F /  13.6 °C 29.9in /  1014.0hPa Oeste 2.4mph /  3.9km/h 2.9mph /  4.7km/h 48% 0in /  0.0mm
05:04 77.5 °F /  25.3 °C 56.3 °F /  13.5 °C 29.9in /  1013.8hPa OSO 2.4mph /  3.9km/h 3.5mph /  5.6km/h 48% 0in /  0.0mm
05:09 77.5 °F /  25.3 °C 56.3 °F /  13.5 °C 29.9in /  1013.8hPa OSO 2.4mph /  3.9km/h 3.6mph /  5.8km/h 48% 0in /  0.0mm
05:14 77.5 °F /  25.3 °C 56.3 °F /  13.5 °C 29.9in /  1013.8hPa SO 2.4mph /  3.9km/h 3.5mph /  5.6km/h 48% 0in /  0.0mm
05:19 77.5 °F /  25.3 °C 56.3 °F /  13.5 °C 29.9in /  1013.8hPa OSO 2.4mph /  3.9km/h 3.5mph /  5.6km/h 48% 0in /  0.0mm
05:24 77.4 °F /  25.2 °C 56.1 °F /  13.4 °C 29.9in /  1013.8hPa OSO 2.4mph /  3.9km/h 4.6mph /  7.4km/h 48% 0in /  0.0mm
05:29 77.4 °F /  25.2 °C 56.1 °F /  13.4 °C 29.9in /  1013.8hPa OSO 2mph /  3.2km/h 3.5mph /  5.6km/h 48% 0in /  0.0mm
05:34 77.5 °F /  25.3 °C 56.3 °F /  13.5 °C 29.9in /  1013.9hPa OSO 2mph /  3.2km/h 3.5mph /  5.6km/h 48% 0in /  0.0mm
05:39 77.5 °F /  25.3 °C 56.3 °F /  13.5 °C 29.9in /  1013.9hPa OSO 1.8mph /  2.9km/h 1.2mph /  1.9km/h 48% 0in /  0.0mm
05:44 77.5 °F /  25.3 °C 57.4 °F /  14.1 °C 29.9in /  1013.9hPa OSO 1.8mph /  2.9km/h   50% 0in /  0.0mm
05:49 77.4 °F /  25.2 °C 58.5 °F /  14.7 °C 29.9in /  1013.6hPa Calm     52% 0in /  0.0mm
05:54 76.8 °F /  24.9 °C 58.5 °F /  14.7 °C 29.9in /  1013.6hPa Calm     53% 0in /  0.0mm
05:59 76.3 °F /  24.6 °C 58.5 °F /  14.7 °C 29.9in /  1013.6hPa Calm     54% 0in /  0.0mm
06:04 75.7 °F /  24.3 °C 58.5 °F /  14.7 °C 29.9in /  1013.7hPa Calm     55% 0in /  0.0mm
06:09 75.4 °F /  24.1 °C 58.1 °F /  14.5 °C 29.9in /  1013.7hPa Calm     55% 0in /  0.0mm
06:14 75 °F /  23.9 °C 58.3 °F /  14.6 °C 29.9in /  1013.7hPa Calm     56% 0in /  0.0mm
06:19 74.8 °F /  23.8 °C 58.1 °F /  14.5 °C 29.9in /  1013.6hPa Calm   3.1mph /  5km/h 56% 0in /  0.0mm
06:24 74.5 °F /  23.6 °C 58.3 °F /  14.6 °C 29.9in /  1013.6hPa Calm   4.6mph /  7.4km/h 57% 0in /  0.0mm
06:29 74.1 °F /  23.4 °C 57.4 °F /  14.1 °C 29.9in /  1013.6hPa SSE 2.9mph /  4.7km/h 5.4mph /  8.7km/h 56% 0in /  0.0mm
06:34 73.9 °F /  23.3 °C 57.4 °F /  14.1 °C 29.9in /  1013.6hPa Sur 2.9mph /  4.7km/h 5.2mph /  8.4km/h 56% 0in /  0.0mm
06:39 73.9 °F /  23.3 °C 56.8 °F /  13.8 °C 29.9in /  1013.6hPa SSE 4mph /  6.4km/h 5.2mph /  8.4km/h 55% 0in /  0.0mm
06:44 73.9 °F /  23.3 °C 56.1 °F /  13.4 °C 29.9in /  1013.6hPa Sur 4mph /  6.4km/h 4.6mph /  7.4km/h 54% 0in /  0.0mm
06:49 74.1 °F /  23.4 °C 55.9 °F /  13.3 °C 29.9in /  1013.6hPa SSE 3.6mph /  5.8km/h 4.3mph /  6.9km/h 53% 0in /  0.0mm
06:54 74.1 °F /  23.4 °C 55.4 °F /  13 °C 29.9in /  1013.6hPa Sur 3.6mph /  5.8km/h 3.5mph /  5.6km/h 52% 0in /  0.0mm
06:59 74.5 °F /  23.6 °C 55.8 °F /  13.2 °C 29.9in /  1013.6hPa SSE 2.9mph /  4.7km/h 3.5mph /  5.6km/h 52% 0in /  0.0mm
07:04 74.5 °F /  23.6 °C 55.8 °F /  13.2 °C 29.9in /  1013.6hPa SSE 2.9mph /  4.7km/h 4.6mph /  7.4km/h 52% 0in /  0.0mm
07:09 74.7 °F /  23.7 °C 55.2 °F /  12.9 °C 29.9in /  1013.6hPa Sur 3.1mph /  5km/h 4.6mph /  7.4km/h 51% 0in /  0.0mm
07:14 74.7 °F /  23.7 °C 54.9 °F /  12.7 °C 29.9in /  1013.6hPa SSO 3.1mph /  5km/h 6.9mph /  11.1km/h 50% 0in /  0.0mm
07:19 74.7 °F /  23.7 °C 54.9 °F /  12.7 °C 29.9in /  1013.7hPa SSO 5.2mph /  8.4km/h 6.9mph /  11.1km/h 50% 0in /  0.0mm
07:24 74.7 °F /  23.7 °C 54.1 °F /  12.3 °C 29.9in /  1013.7hPa Sur 5.2mph /  8.4km/h 8.1mph /  13km/h 49% 0in /  0.0mm
07:29 74.7 °F /  23.7 °C 54.1 °F /  12.3 °C 29.9in /  1013.7hPa SO 5.2mph /  8.4km/h 10.4mph /  16.7km/h 49% 0in /  0.0mm
07:34 74.7 °F /  23.7 °C 54.1 °F /  12.3 °C 29.9in /  1013.8hPa SO 5.2mph /  8.4km/h 6.9mph /  11.1km/h 49% 0in /  0.0mm
07:39 74.7 °F /  23.7 °C 54.1 °F /  12.3 °C 29.9in /  1013.8hPa SSO 4.7mph /  7.6km/h 4.7mph /  7.6km/h 49% 0in /  0.0mm
07:44 74.8 °F /  23.8 °C 53.8 °F /  12.1 °C 29.9in /  1013.8hPa SSO 4.7mph /  7.6km/h 4.6mph /  7.4km/h 48% 0in /  0.0mm
07:49 74.8 °F /  23.8 °C 53.8 °F /  12.1 °C 29.9in /  1013.9hPa SO 3.6mph /  5.8km/h 4.7mph /  7.6km/h 48% 0in /  0.0mm
07:54 75 °F /  23.9 °C 53.4 °F /  11.9 °C 29.9in /  1013.9hPa OSO 3.6mph /  5.8km/h 5.8mph /  9.3km/h 47% 0in /  0.0mm
07:59 75 °F /  23.9 °C 52.9 °F /  11.6 °C 29.9in /  1013.9hPa SSO 4.7mph /  7.6km/h 6.9mph /  11.1km/h 46% 0in /  0.0mm
08:04 75.2 °F /  24 °C 53.1 °F /  11.7 °C 29.9in /  1014.1hPa SSO 4.7mph /  7.6km/h 8.1mph /  13km/h 46% 0in /  0.0mm
08:09 75.4 °F /  24.1 °C 53.8 °F /  12.1 °C 29.9in /  1014.1hPa SO 5.2mph /  8.4km/h 8.1mph /  13km/h 47% 0in /  0.0mm
08:14 75.7 °F /  24.3 °C 53.4 °F /  11.9 °C 29.9in /  1014.1hPa OSO 5.2mph /  8.4km/h 6.9mph /  11.1km/h 46% 0in /  0.0mm
08:19 75.7 °F /  24.3 °C 53.4 °F /  11.9 °C 29.9in /  1014.1hPa SSO 5.4mph /  8.7km/h 9.2mph /  14.8km/h 46% 0in /  0.0mm
08:24 75.9 °F /  24.4 °C 53.6 °F /  12 °C 29.9in /  1014.1hPa SSO 5.4mph /  8.7km/h 8.1mph /  13km/h 46% 0in /  0.0mm
08:29 76.1 °F /  24.5 °C 53.2 °F /  11.8 °C 29.9in /  1014.1hPa OSO 5.4mph /  8.7km/h 7.4mph /  11.9km/h 45% 0in /  0.0mm
08:34 76.5 °F /  24.7 °C 53.4 °F /  11.9 °C 30in /  1014.3hPa SO 5.4mph /  8.7km/h 6.9mph /  11.1km/h 45% 0in /  0.0mm
08:39 76.6 °F /  24.8 °C 53.8 °F /  12.1 °C 30in /  1014.3hPa SO 4.3mph /  6.9km/h 5.2mph /  8.4km/h 45% 0in /  0.0mm
08:44 76.8 °F /  24.9 °C 53.2 °F /  11.8 °C 30in /  1014.3hPa OSO 4.3mph /  6.9km/h 6.9mph /  11.1km/h 44% 0in /  0.0mm
08:49 77.2 °F /  25.1 °C 52.9 °F /  11.6 °C 30in /  1014.3hPa OSO 4.3mph /  6.9km/h 8.7mph /  14km/h 43% 0in /  0.0mm
08:54 77.5 °F /  25.3 °C 53.2 °F /  11.8 °C 30in /  1014.3hPa OSO 4.3mph /  6.9km/h 5.8mph /  9.3km/h 43% 0in /  0.0mm
08:59 77.9 °F /  25.5 °C 53.1 °F /  11.7 °C 30in /  1014.3hPa SSO 4mph /  6.4km/h 6.9mph /  11.1km/h 42% 0in /  0.0mm
09:04 78.3 °F /  25.7 °C 53.2 °F /  11.8 °C 30in /  1014.4hPa OSO 4mph /  6.4km/h 6.9mph /  11.1km/h 42% 0in /  0.0mm
09:09 78.6 °F /  25.9 °C 53.6 °F /  12 °C 30in /  1014.4hPa SSO 4.3mph /  6.9km/h 6.9mph /  11.1km/h 42% 0in /  0.0mm
09:14 79.2 °F /  26.2 °C 53.4 °F /  11.9 °C 30in /  1014.4hPa SSO 4.3mph /  6.9km/h 9.2mph /  14.8km/h 41% 0in /  0.0mm
09:19 79.5 °F /  26.4 °C 53.8 °F /  12.1 °C 30in /  1014.4hPa SO 4.7mph /  7.6km/h 5.8mph /  9.3km/h 41% 0in /  0.0mm
09:24 79.9 °F /  26.6 °C 53.4 °F /  11.9 °C 30in /  1014.4hPa Sur 4.7mph /  7.6km/h 6.9mph /  11.1km/h 40% 0in /  0.0mm
09:29 80.1 °F /  26.7 °C 53.6 °F /  12 °C 30in /  1014.4hPa OSO 4.7mph /  7.6km/h 6.9mph /  11.1km/h 40% 0in /  0.0mm
09:34 80.4 °F /  26.9 °C 54 °F /  12.2 °C 30in /  1014.4hPa ONO 4.7mph /  7.6km/h 4.6mph /  7.4km/h 40% 0in /  0.0mm
09:39 81 °F /  27.2 °C 54.3 °F /  12.4 °C 30in /  1014.4hPa Oeste 2.9mph /  4.7km/h 4.6mph /  7.4km/h 40% 0in /  0.0mm
09:44 81.1 °F /  27.3 °C 53.8 °F /  12.1 °C 30in /  1014.4hPa Oeste 2.9mph /  4.7km/h 5.8mph /  9.3km/h 39% 0in /  0.0mm
09:49 81.3 °F /  27.4 °C 54 °F /  12.2 °C 30in /  1014.4hPa SO 4mph /  6.4km/h 4.7mph /  7.6km/h 39% 0in /  0.0mm
09:54 81.5 °F /  27.5 °C 54.1 °F /  12.3 °C 30in /  1014.4hPa SO 4mph /  6.4km/h 8.1mph /  13km/h 39% 0in /  0.0mm
09:59 81.3 °F /  27.4 °C 54 °F /  12.2 °C 30in /  1014.4hPa OSO 4.7mph /  7.6km/h 5.8mph /  9.3km/h 39% 0in /  0.0mm
10:04 81.7 °F /  27.6 °C 53.6 °F /  12 °C 30in /  1014.4hPa OSO 4.7mph /  7.6km/h 6.9mph /  11.1km/h 38% 0in /  0.0mm
10:09 81.9 °F /  27.7 °C 54.5 °F /  12.5 °C 30in /  1014.4hPa SO 4mph /  6.4km/h 5.8mph /  9.3km/h 39% 0in /  0.0mm
10:14 82 °F /  27.8 °C 54.7 °F /  12.6 °C 30in /  1014.4hPa Oeste 4mph /  6.4km/h 4.6mph /  7.4km/h 39% 0in /  0.0mm
10:19 82.6 °F /  28.1 °C 55 °F /  12.8 °C 30in /  1014.4hPa Sur 4mph /  6.4km/h 5.8mph /  9.3km/h 39% 0in /  0.0mm
10:24 82.9 °F /  28.3 °C 54.7 °F /  12.6 °C 30in /  1014.4hPa SSE 4mph /  6.4km/h 3.5mph /  5.6km/h 38% 0in /  0.0mm
10:29 83.5 °F /  28.6 °C 54.5 °F /  12.5 °C 30in /  1014.4hPa SE 2.9mph /  4.7km/h 4.6mph /  7.4km/h 37% 0in /  0.0mm
10:34 84 °F /  28.9 °C 54.1 °F /  12.3 °C 30in /  1014.5hPa SO 2.9mph /  4.7km/h 5.8mph /  9.3km/h 36% 0in /  0.0mm
10:39 84.2 °F /  29 °C 54.3 °F /  12.4 °C 30in /  1014.5hPa Sur 4mph /  6.4km/h 6.9mph /  11.1km/h 36% 0in /  0.0mm
10:44 84.6 °F /  29.2 °C 54.7 °F /  12.6 °C 30in /  1014.5hPa Sur 4mph /  6.4km/h 6.4mph /  10.3km/h 36% 0in /  0.0mm
10:49 84.9 °F /  29.4 °C 54.1 °F /  12.3 °C 30in /  1014.4hPa SSE 4.3mph /  6.9km/h 5.8mph /  9.3km/h 35% 0in /  0.0mm
10:54 85.3 °F /  29.6 °C 53.8 °F /  12.1 °C 30in /  1014.4hPa SSE 4.3mph /  6.9km/h 5.8mph /  9.3km/h 34% 0in /  0.0mm
10:59 86 °F /  30 °C 52.7 °F /  11.5 °C 30in /  1014.4hPa SO 4.3mph /  6.9km/h 4.6mph /  7.4km/h 32% 0in /  0.0mm
11:04 86.5 °F /  30.3 °C 53.2 °F /  11.8 °C 30in /  1014.4hPa Sur 3.6mph /  5.8km/h 4.6mph /  7.4km/h 32% 0in /  0.0mm
11:09 87.1 °F /  30.6 °C 52.9 °F /  11.6 °C 30in /  1014.4hPa OSO 2.9mph /  4.7km/h 4.6mph /  7.4km/h 31% 0in /  0.0mm
11:14 87.4 °F /  30.8 °C 49.3 °F /  9.6 °C 30in /  1014.4hPa OSO 2.9mph /  4.7km/h 5.8mph /  9.3km/h 27% 0in /  0.0mm
11:19 88 °F /  31.1 °C 49.8 °F /  9.9 °C 30in /  1014.4hPa ESE 3.1mph /  5km/h 4.3mph /  6.9km/h 27% 0in /  0.0mm
11:24 88.3 °F /  31.3 °C 49.1 °F /  9.5 °C 30in /  1014.4hPa ESE 3.1mph /  5km/h 3.5mph /  5.6km/h 26% 0in /  0.0mm
11:29 88.9 °F /  31.6 °C 48.6 °F /  9.2 °C 30in /  1014.4hPa ESE 3.1mph /  5km/h 5.2mph /  8.4km/h 25% 0in /  0.0mm
11:34 89.1 °F /  31.7 °C 48.7 °F /  9.3 °C 30in /  1014.3hPa ENE 3.1mph /  5km/h 5.8mph /  9.3km/h 25% 0in /  0.0mm
11:39 89.8 °F /  32.1 °C 49.3 °F /  9.6 °C 30in /  1014.3hPa ENE 2.9mph /  4.7km/h 4.6mph /  7.4km/h 25% 0in /  0.0mm
11:44 90.1 °F /  32.3 °C 49.6 °F /  9.8 °C 30in /  1014.3hPa NE 2.9mph /  4.7km/h 6.9mph /  11.1km/h 25% 0in /  0.0mm
11:49 90 °F /  32.2 °C 49.5 °F /  9.7 °C 30in /  1014.2hPa North 4mph /  6.4km/h 9.2mph /  14.8km/h 25% 0in /  0.0mm
11:54 90 °F /  32.2 °C 49.5 °F /  9.7 °C 30in /  1014.2hPa NE 4mph /  6.4km/h 5.2mph /  8.4km/h 25% 0in /  0.0mm
11:59 90.3 °F /  32.4 °C 49.6 °F /  9.8 °C 30in /  1014.2hPa NNE 4.3mph /  6.9km/h 8.1mph /  13km/h 25% 0in /  0.0mm
12:04 90.3 °F /  32.4 °C 49.6 °F /  9.8 °C 29.9in /  1014.0hPa ENE 4.3mph /  6.9km/h 5.8mph /  9.3km/h 25% 0in /  0.0mm
12:09 90.9 °F /  32.7 °C 49.1 °F /  9.5 °C 29.9in /  1014.0hPa ENE 4.3mph /  6.9km/h 8.5mph /  13.7km/h 24% 0in /  0.0mm
12:14 91 °F /  32.8 °C 49.3 °F /  9.6 °C 29.9in /  1014.0hPa ENE 4.3mph /  6.9km/h 10mph /  16.1km/h 24% 0in /  0.0mm
12:19 91 °F /  32.8 °C 49.3 °F /  9.6 °C 29.9in /  1014.1hPa NE 5.9mph /  9.5km/h 9.7mph /  15.6km/h 24% 0in /  0.0mm
12:24 91.2 °F /  32.9 °C 49.5 °F /  9.7 °C 29.9in /  1014.1hPa Este 5.9mph /  9.5km/h 8.1mph /  13km/h 24% 0in /  0.0mm
12:29 91.6 °F /  33.1 °C 50.7 °F /  10.4 °C 29.9in /  1014.1hPa NNE 4.7mph /  7.6km/h 5.8mph /  9.3km/h 25% 0in /  0.0mm
12:34 91.8 °F /  33.2 °C 49.8 °F /  9.9 °C 29.9in /  1014.1hPa Este 4.7mph /  7.6km/h 11.5mph /  18.5km/h 24% 0in /  0.0mm
12:39 91.8 °F /  33.2 °C 49.8 °F /  9.9 °C 29.9in /  1014.1hPa NE 5.9mph /  9.5km/h 8.1mph /  13km/h 24% 0in /  0.0mm
12:44 92.1 °F /  33.4 °C 51.3 °F /  10.7 °C 29.9in /  1014.1hPa NE 5.9mph /  9.5km/h 9.2mph /  14.8km/h 25% 0in /  0.0mm
12:49 92.5 °F /  33.6 °C 50.4 °F /  10.2 °C 29.9in /  1013.8hPa Este 5.2mph /  8.4km/h 6.2mph /  10km/h 24% 0in /  0.0mm
12:54 92.7 °F /  33.7 °C 50.5 °F /  10.3 °C 29.9in /  1013.8hPa ENE 5.2mph /  8.4km/h 8.1mph /  13km/h 24% 0in /  0.0mm
12:59 92.7 °F /  33.7 °C 50.5 °F /  10.3 °C 29.9in /  1013.8hPa NE 4.7mph /  7.6km/h 8.1mph /  13km/h 24% 0in /  0.0mm
13:04 92.8 °F /  33.8 °C 48.4 °F /  9.1 °C 29.9in /  1013.7hPa NNE 4.7mph /  7.6km/h 13.8mph /  22.2km/h 22% 0in /  0.0mm
13:09 93.2 °F /  34 °C 51.1 °F /  10.6 °C 29.9in /  1013.7hPa NNE 8.1mph /  13km/h 10.4mph /  16.7km/h 24% 0in /  0.0mm
13:14 93.6 °F /  34.2 °C 50.2 °F /  10.1 °C 29.9in /  1013.7hPa NE 8.1mph /  13km/h 10.4mph /  16.7km/h 23% 0in /  0.0mm
13:19 93.7 °F /  34.3 °C 51.4 °F /  10.8 °C 29.9in /  1013.7hPa NE 8.1mph /  13km/h 15mph /  24.1km/h 24% 0in /  0.0mm
13:24 93.7 °F /  34.3 °C 51.4 °F /  10.8 °C 29.9in /  1013.7hPa NNE 8.1mph /  13km/h 13.7mph /  22km/h 24% 0in /  0.0mm
13:29 93.6 °F /  34.2 °C 51.3 °F /  10.7 °C 29.9in /  1013.7hPa Este 8.7mph /  14km/h 12.7mph /  20.4km/h 24% 0in /  0.0mm
13:34 93.7 °F /  34.3 °C 51.4 °F /  10.8 °C 29.9in /  1013.7hPa NE 8.7mph /  14km/h 10.7mph /  17.2km/h 24% 0in /  0.0mm
13:39 93.7 °F /  34.3 °C 51.4 °F /  10.8 °C 29.9in /  1013.7hPa ENE 9.2mph /  14.8km/h 16.1mph /  25.9km/h 24% 0in /  0.0mm
13:44 93.6 °F /  34.2 °C 51.3 °F /  10.7 °C 29.9in /  1013.7hPa NE 9.2mph /  14.8km/h 13.8mph /  22.2km/h 24% 0in /  0.0mm
13:49 93.6 °F /  34.2 °C 50.2 °F /  10.1 °C 29.9in /  1013.7hPa Este 10.2mph /  16.4km/h 15mph /  24.1km/h 23% 0in /  0.0mm
13:54 93.7 °F /  34.3 °C 50.4 °F /  10.2 °C 29.9in /  1013.7hPa ENE 10.2mph /  16.4km/h 15mph /  24.1km/h 23% 0in /  0.0mm
13:59 93.6 °F /  34.2 °C 51.3 °F /  10.7 °C 29.9in /  1013.7hPa ENE 9.2mph /  14.8km/h 12.7mph /  20.4km/h 24% 0in /  0.0mm
14:04 93.6 °F /  34.2 °C 52.5 °F /  11.4 °C 29.9in /  1013.5hPa Este 9.2mph /  14.8km/h 15mph /  24.1km/h 25% 0in /  0.0mm
14:09 93.2 °F /  34 °C 52.2 °F /  11.2 °C 29.9in /  1013.5hPa ENE 11.2mph /  18km/h 18.4mph /  29.6km/h 25% 0in /  0.0mm
14:14 92.8 °F /  33.8 °C 51.8 °F /  11 °C 29.9in /  1013.5hPa NE 11.2mph /  18km/h 18.4mph /  29.6km/h 25% 0in /  0.0mm
14:19 93 °F /  33.9 °C 52 °F /  11.1 °C 29.9in /  1013.3hPa NNE 12.3mph /  19.8km/h 16.1mph /  25.9km/h 25% 0in /  0.0mm
14:24 93.4 °F /  34.1 °C 52.3 °F /  11.3 °C 29.9in /  1013.3hPa NNE 12.3mph /  19.8km/h 17.3mph /  27.8km/h 25% 0in /  0.0mm
14:29 93.4 °F /  34.1 °C 53.4 °F /  11.9 °C 29.9in /  1013.3hPa NE 11.2mph /  18km/h 18.4mph /  29.6km/h 26% 0in /  0.0mm
14:34 93.2 °F /  34 °C 53.2 °F /  11.8 °C 29.9in /  1013.2hPa NNE 11.2mph /  18km/h 17.3mph /  27.8km/h 26% 0in /  0.0mm
14:39 93.7 °F /  34.3 °C 53.8 °F /  12.1 °C 29.9in /  1013.2hPa NE 10.7mph /  17.2km/h 13.8mph /  22.2km/h 26% 0in /  0.0mm
14:44 93.6 °F /  34.2 °C 53.4 °F /  11.9 °C 29.9in /  1013.2hPa ENE 10.7mph /  17.2km/h 18.4mph /  29.6km/h 26% 0in /  0.0mm
14:49 93.4 °F /  34.1 °C 53.4 °F /  11.9 °C 29.9in /  1013.0hPa NE 10.7mph /  17.2km/h 21.9mph /  35.2km/h 26% 0in /  0.0mm
14:54 93 °F /  33.9 °C 52 °F /  11.1 °C 29.9in /  1013.0hPa Este 10.7mph /  17.2km/h 17.3mph /  27.8km/h 25% 0in /  0.0mm
14:59 93.6 °F /  34.2 °C 53.4 °F /  11.9 °C 29.9in /  1013.0hPa ENE 11.8mph /  19km/h 17.5mph /  28.2km/h 26% 0in /  0.0mm
15:04 93.6 °F /  34.2 °C 53.4 °F /  11.9 °C 29.9in /  1013.0hPa NE 11.8mph /  19km/h 14.7mph /  23.7km/h 26% 0in /  0.0mm
15:09 93.2 °F /  34 °C 53.2 °F /  11.8 °C 29.9in /  1013.0hPa NE 11.8mph /  19km/h 17.3mph /  27.8km/h 26% 0in /  0.0mm
15:14 93.4 °F /  34.1 °C 53.4 °F /  11.9 °C 29.9in /  1013.0hPa ENE 11.8mph /  19km/h 17.3mph /  27.8km/h 26% 0in /  0.0mm
15:19 93.6 °F /  34.2 °C 54.7 °F /  12.6 °C 29.9in /  1013.0hPa NE 10.2mph /  16.4km/h 15mph /  24.1km/h 27% 0in /  0.0mm
15:24 93.7 °F /  34.3 °C 54.7 °F /  12.6 °C 29.9in /  1013.0hPa NE 10.2mph /  16.4km/h 12.7mph /  20.4km/h 27% 0in /  0.0mm
15:29 93.6 °F /  34.2 °C 54.7 °F /  12.6 °C 29.9in /  1013.0hPa Este 8.7mph /  14km/h 18.4mph /  29.6km/h 27% 0in /  0.0mm
15:34 93.7 °F /  34.3 °C 54.7 °F /  12.6 °C 29.9in /  1012.7hPa NE 8.7mph /  14km/h 15.2mph /  24.5km/h 27% 0in /  0.0mm
15:39 93.9 °F /  34.4 °C 54.9 °F /  12.7 °C 29.9in /  1012.7hPa ONO 8.7mph /  14km/h 17.3mph /  27.8km/h 27% 0in /  0.0mm
15:44 93.6 °F /  34.2 °C 55.6 °F /  13.1 °C 29.9in /  1012.7hPa NE 8.7mph /  14km/h 18.4mph /  29.6km/h 28% 0in /  0.0mm
15:49 93.2 °F /  34 °C 55.2 °F /  12.9 °C 29.9in /  1012.8hPa ENE 10.7mph /  17.2km/h 15mph /  24.1km/h 28% 0in /  0.0mm
15:54 93 °F /  33.9 °C 55 °F /  12.8 °C 29.9in /  1012.8hPa NNE 10.7mph /  17.2km/h 16.1mph /  25.9km/h 28% 0in /  0.0mm
15:59 93.2 °F /  34 °C 56.1 °F /  13.4 °C 29.9in /  1012.8hPa NE 11.4mph /  18.3km/h 15mph /  24.1km/h 29% 0in /  0.0mm
16:04 93.4 °F /  34.1 °C 55.4 °F /  13 °C 29.9in /  1012.8hPa NE 11.4mph /  18.3km/h 15mph /  24.1km/h 28% 0in /  0.0mm
16:09 93.4 °F /  34.1 °C 56.5 °F /  13.6 °C 29.9in /  1012.8hPa Este 10mph /  16.1km/h 17.5mph /  28.2km/h 29% 0in /  0.0mm
16:14 93 °F /  33.9 °C 56.1 °F /  13.4 °C 29.9in /  1012.8hPa NNO 10mph /  16.1km/h 15.2mph /  24.5km/h 29% 0in /  0.0mm
16:19 93 °F /  33.9 °C 57 °F /  13.9 °C 29.9in /  1012.8hPa NE 11.2mph /  18km/h 14mph /  22.5km/h 30% 0in /  0.0mm
16:24 92.8 °F /  33.8 °C 57.7 °F /  14.3 °C 29.9in /  1012.8hPa NE 11.2mph /  18km/h 16.1mph /  25.9km/h 31% 0in /  0.0mm
16:29 93 °F /  33.9 °C 57 °F /  13.9 °C 29.9in /  1012.8hPa ENE 10.2mph /  16.4km/h 14mph /  22.5km/h 30% 0in /  0.0mm
16:34 92.7 °F /  33.7 °C 55.8 °F /  13.2 °C 29.9in /  1012.8hPa NE 10.2mph /  16.4km/h 15mph /  24.1km/h 29% 0in /  0.0mm
16:39 92.8 °F /  33.8 °C 55.9 °F /  13.3 °C 29.9in /  1012.8hPa NE 10.7mph /  17.2km/h 16.1mph /  25.9km/h 29% 0in /  0.0mm
16:44 92.7 °F /  33.7 °C 56.7 °F /  13.7 °C 29.9in /  1012.8hPa Este 10.7mph /  17.2km/h 15mph /  24.1km/h 30% 0in /  0.0mm
16:49 92.8 °F /  33.8 °C 56.8 °F /  13.8 °C 29.9in /  1012.7hPa ENE 11.8mph /  19km/h 15.2mph /  24.5km/h 30% 0in /  0.0mm
16:54 92.5 °F /  33.6 °C 55.6 °F /  13.1 °C 29.9in /  1012.7hPa NE 11.8mph /  19km/h 16.1mph /  25.9km/h 29% 0in /  0.0mm
16:59 92.8 °F /  33.8 °C 56.8 °F /  13.8 °C 29.9in /  1012.7hPa ENE 11.2mph /  18km/h 15mph /  24.1km/h 30% 0in /  0.0mm
17:04 92.8 °F /  33.8 °C 55.9 °F /  13.3 °C 29.9in /  1012.7hPa NE 11.2mph /  18km/h 18.4mph /  29.6km/h 29% 0in /  0.0mm
17:09 92.8 °F /  33.8 °C 56.8 °F /  13.8 °C 29.9in /  1012.7hPa NE 10.2mph /  16.4km/h 16.1mph /  25.9km/h 30% 0in /  0.0mm
17:14 92.8 °F /  33.8 °C 56.8 °F /  13.8 °C 29.9in /  1012.7hPa ENE 10.2mph /  16.4km/h 16.1mph /  25.9km/h 30% 0in /  0.0mm
17:19 93 °F /  33.9 °C 56.1 °F /  13.4 °C 29.9in /  1012.5hPa NNE 8.5mph /  13.7km/h 10.4mph /  16.7km/h 29% 0in /  0.0mm
17:24 92.8 °F /  33.8 °C 55.9 °F /  13.3 °C 29.9in /  1012.5hPa NE 8.5mph /  13.7km/h 18.4mph /  29.6km/h 29% 0in /  0.0mm
17:29 92.7 °F /  33.7 °C 55.8 °F /  13.2 °C 29.9in /  1012.5hPa NE 10.2mph /  16.4km/h 16.8mph /  27km/h 29% 0in /  0.0mm
17:34 92.8 °F /  33.8 °C 54.9 °F /  12.7 °C 29.9in /  1012.4hPa NE 10.2mph /  16.4km/h 13.8mph /  22.2km/h 28% 0in /  0.0mm
17:39 93 °F /  33.9 °C 56.1 °F /  13.4 °C 29.9in /  1012.4hPa NE 9.7mph /  15.6km/h 16.1mph /  25.9km/h 29% 0in /  0.0mm
17:44 92.8 °F /  33.8 °C 54.9 °F /  12.7 °C 29.9in /  1012.4hPa NE 9.7mph /  15.6km/h 18.4mph /  29.6km/h 28% 0in /  0.0mm
17:49 92.5 °F /  33.6 °C 54.7 °F /  12.6 °C 29.9in /  1012.3hPa NNE 11.2mph /  18km/h 17.3mph /  27.8km/h 28% 0in /  0.0mm
17:54 92.5 °F /  33.6 °C 54.7 °F /  12.6 °C 29.9in /  1012.3hPa ENE 11.2mph /  18km/h 16.1mph /  25.9km/h 28% 0in /  0.0mm
17:59 92.7 °F /  33.7 °C 54.9 °F /  12.7 °C 29.9in /  1012.3hPa ENE 10.7mph /  17.2km/h 13.8mph /  22.2km/h 28% 0in /  0.0mm
18:04 92.8 °F /  33.8 °C 54.9 °F /  12.7 °C 29.9in /  1012.2hPa Este 10.7mph /  17.2km/h 15mph /  24.1km/h 28% 0in /  0.0mm
18:09 93 °F /  33.9 °C 55 °F /  12.8 °C 29.9in /  1012.2hPa Este 8.5mph /  13.7km/h 15mph /  24.1km/h 28% 0in /  0.0mm
18:14 92.8 °F /  33.8 °C 54 °F /  12.2 °C 29.9in /  1012.2hPa NE 8.5mph /  13.7km/h 15.2mph /  24.5km/h 27% 0in /  0.0mm
18:19 92.5 °F /  33.6 °C 54.7 °F /  12.6 °C 29.9in /  1012.1hPa SE 9.7mph /  15.6km/h 15mph /  24.1km/h 28% 0in /  0.0mm
18:24 92.5 °F /  33.6 °C 53.6 °F /  12 °C 29.9in /  1012.1hPa NNE 9.7mph /  15.6km/h 13.8mph /  22.2km/h 27% 0in /  0.0mm
18:29 92.7 °F /  33.7 °C 54.9 °F /  12.7 °C 29.9in /  1012.1hPa ENE 9.2mph /  14.8km/h 12.7mph /  20.4km/h 28% 0in /  0.0mm
18:34 92.1 °F /  33.4 °C 55.2 °F /  12.9 °C 29.9in /  1011.9hPa ENE 9.2mph /  14.8km/h 18.4mph /  29.6km/h 29% 0in /  0.0mm
18:39 92.1 °F /  33.4 °C 55.2 °F /  12.9 °C 29.9in /  1011.9hPa NE 11.2mph /  18km/h 12.7mph /  20.4km/h 29% 0in /  0.0mm
18:44 91.9 °F /  33.3 °C 55 °F /  12.8 °C 29.9in /  1011.9hPa NE 11.2mph /  18km/h 17.3mph /  27.8km/h 29% 0in /  0.0mm
18:49 91.8 °F /  33.2 °C 55.9 °F /  13.3 °C 29.9in /  1012.0hPa NE 10.7mph /  17.2km/h 17.3mph /  27.8km/h 30% 0in /  0.0mm
18:54 91.6 °F /  33.1 °C 56.7 °F /  13.7 °C 29.9in /  1012.0hPa ENE 10.7mph /  17.2km/h 14mph /  22.5km/h 31% 0in /  0.0mm
18:59 91.6 °F /  33.1 °C 55.8 °F /  13.2 °C 29.9in /  1012.0hPa NE 10.7mph /  17.2km/h 16.1mph /  25.9km/h 30% 0in /  0.0mm
19:04 91.4 °F /  33 °C 55.6 °F /  13.1 °C 29.9in /  1012.0hPa NNE 10.7mph /  17.2km/h 10mph /  16.1km/h 30% 0in /  0.0mm
19:09 91.2 °F /  32.9 °C 58.1 °F /  14.5 °C 29.9in /  1012.0hPa ENE 10.7mph /  17.2km/h 17.3mph /  27.8km/h 33% 0in /  0.0mm
19:14 91.2 °F /  32.9 °C 58.1 °F /  14.5 °C 29.9in /  1012.0hPa North 10.7mph /  17.2km/h 13.8mph /  22.2km/h 33% 0in /  0.0mm
19:19 91 °F /  32.8 °C 57 °F /  13.9 °C 29.9in /  1012.0hPa Este 8.7mph /  14km/h 16.1mph /  25.9km/h 32% 0in /  0.0mm
19:24 91 °F /  32.8 °C 57 °F /  13.9 °C 29.9in /  1012.0hPa NE 8.7mph /  14km/h 14.5mph /  23.3km/h 32% 0in /  0.0mm
19:29 90.9 °F /  32.7 °C 57.7 °F /  14.3 °C 29.9in /  1012.0hPa NE 8.5mph /  13.7km/h 17.3mph /  27.8km/h 33% 0in /  0.0mm
19:34 90.7 °F /  32.6 °C 59.4 °F /  15.2 °C 29.9in /  1011.9hPa NE 8.5mph /  13.7km/h 12.7mph /  20.4km/h 35% 0in /  0.0mm
19:39 90.1 °F /  32.3 °C 57.9 °F /  14.4 °C 29.9in /  1011.9hPa NE 9.7mph /  15.6km/h 15mph /  24.1km/h 34% 0in /  0.0mm
19:44 90 °F /  32.2 °C 60.3 °F /  15.7 °C 29.9in /  1011.9hPa NE 9.7mph /  15.6km/h 14.5mph /  23.3km/h 37% 0in /  0.0mm
19:49 89.8 °F /  32.1 °C 60.8 °F /  16 °C 29.9in /  1011.9hPa NNE 9.7mph /  15.6km/h 15mph /  24.1km/h 38% 0in /  0.0mm
19:54 89.4 °F /  31.9 °C 59.7 °F /  15.4 °C 29.9in /  1011.9hPa NE 9.7mph /  15.6km/h 15mph /  24.1km/h 37% 0in /  0.0mm
19:59 89.2 °F /  31.8 °C 61 °F /  16.1 °C 29.9in /  1011.9hPa NE 10mph /  16.1km/h 13.8mph /  22.2km/h 39% 0in /  0.0mm
20:04 89.1 °F /  31.7 °C 61.5 °F /  16.4 °C 29.9in /  1012.0hPa NE 10mph /  16.1km/h 12.7mph /  20.4km/h 40% 0in /  0.0mm
20:09 88.7 °F /  31.5 °C 61.3 °F /  16.3 °C 29.9in /  1012.0hPa North 9.2mph /  14.8km/h 15mph /  24.1km/h 40% 0in /  0.0mm
20:14 88.5 °F /  31.4 °C 60.4 °F /  15.8 °C 29.9in /  1012.0hPa NNE 9.2mph /  14.8km/h 13.8mph /  22.2km/h 39% 0in /  0.0mm
20:19 88.2 °F /  31.2 °C 60.8 °F /  16 °C 29.9in /  1012.1hPa NNE 9.7mph /  15.6km/h 14.5mph /  23.3km/h 40% 0in /  0.0mm
20:24 88.2 °F /  31.2 °C 61.5 °F /  16.4 °C 29.9in /  1012.1hPa NNE 9.7mph /  15.6km/h 12.5mph /  20.1km/h 41% 0in /  0.0mm
20:29 88 °F /  31.1 °C 61.3 °F /  16.3 °C 29.9in /  1012.1hPa ENE 8.5mph /  13.7km/h 13mph /  20.9km/h 41% 0in /  0.0mm
20:34 87.6 °F /  30.9 °C 61.7 °F /  16.5 °C 29.9in /  1012.1hPa NE 8.5mph /  13.7km/h 13.8mph /  22.2km/h 42% 0in /  0.0mm
20:39 87.3 °F /  30.7 °C 60.6 °F /  15.9 °C 29.9in /  1012.1hPa NE 8.7mph /  14km/h 12.7mph /  20.4km/h 41% 0in /  0.0mm
20:44 87.1 °F /  30.6 °C 60.4 °F /  15.8 °C 29.9in /  1012.1hPa NNE 8.7mph /  14km/h 10.4mph /  16.7km/h 41% 0in /  0.0mm
20:49 86.7 °F /  30.4 °C 61.5 °F /  16.4 °C 29.9in /  1012.4hPa NE 7.6mph /  12.2km/h 9.2mph /  14.8km/h 43% 0in /  0.0mm
20:54 86.4 °F /  30.2 °C 61.9 °F /  16.6 °C 29.9in /  1012.4hPa NE 7.6mph /  12.2km/h 9.2mph /  14.8km/h 44% 0in /  0.0mm
20:59 86.2 °F /  30.1 °C 62.2 °F /  16.8 °C 29.9in /  1012.4hPa NE 7.6mph /  12.2km/h 8.1mph /  13km/h 45% 0in /  0.0mm
21:04 85.8 °F /  29.9 °C 63.3 °F /  17.4 °C 29.9in /  1012.4hPa Este 7.6mph /  12.2km/h 10mph /  16.1km/h 47% 0in /  0.0mm
21:09 85.5 °F /  29.7 °C 63 °F /  17.2 °C 29.9in /  1012.4hPa NNE 6.9mph /  11.1km/h 9.2mph /  14.8km/h 47% 0in /  0.0mm
21:14 85.1 °F /  29.5 °C 62.6 °F /  17 °C 29.9in /  1012.4hPa NE 6.9mph /  11.1km/h 10.4mph /  16.7km/h 47% 0in /  0.0mm
21:19 84.9 °F /  29.4 °C 63 °F /  17.2 °C 29.9in /  1012.5hPa ENE 7.6mph /  12.2km/h 11.5mph /  18.5km/h 48% 0in /  0.0mm
21:24 84.7 °F /  29.3 °C 63 °F /  17.2 °C 29.9in /  1012.5hPa ENE 7.6mph /  12.2km/h 6.9mph /  11.1km/h 48% 0in /  0.0mm
21:29 84.6 °F /  29.2 °C 62.8 °F /  17.1 °C 29.9in /  1012.5hPa NE 5.4mph /  8.7km/h 8.1mph /  13km/h 48% 0in /  0.0mm
21:34 84.4 °F /  29.1 °C 61.9 °F /  16.6 °C 29.9in /  1012.7hPa NE 5.4mph /  8.7km/h 8.1mph /  13km/h 47% 0in /  0.0mm
21:39 84.4 °F /  29.1 °C 61.9 °F /  16.6 °C 29.9in /  1012.7hPa Este 5.9mph /  9.5km/h 6.9mph /  11.1km/h 47% 0in /  0.0mm
21:44 84 °F /  28.9 °C 61.5 °F /  16.4 °C 29.9in /  1012.7hPa NE 5.9mph /  9.5km/h 6.9mph /  11.1km/h 47% 0in /  0.0mm
21:49 83.8 °F /  28.8 °C 62.1 °F /  16.7 °C 29.9in /  1012.7hPa Este 4.7mph /  7.6km/h 6.9mph /  11.1km/h 48% 0in /  0.0mm
21:54 83.7 °F /  28.7 °C 61.9 °F /  16.6 °C 29.9in /  1012.7hPa NE 4.7mph /  7.6km/h 6.9mph /  11.1km/h 48% 0in /  0.0mm
21:59 83.5 °F /  28.6 °C 62.2 °F /  16.8 °C 29.9in /  1012.7hPa NE 4.3mph /  6.9km/h 6.9mph /  11.1km/h 49% 0in /  0.0mm
22:04 83.5 °F /  28.6 °C 63 °F /  17.2 °C 29.9in /  1012.7hPa ENE 4.3mph /  6.9km/h 5.8mph /  9.3km/h 50% 0in /  0.0mm
22:09 83.1 °F /  28.4 °C 62.6 °F /  17 °C 29.9in /  1012.7hPa ENE 4.3mph /  6.9km/h 8.1mph /  13km/h 50% 0in /  0.0mm
22:14 82.9 °F /  28.3 °C 63 °F /  17.2 °C 29.9in /  1012.7hPa ENE 4.3mph /  6.9km/h 6.9mph /  11.1km/h 51% 0in /  0.0mm
22:19 82.8 °F /  28.2 °C 63.3 °F /  17.4 °C 29.9in /  1012.8hPa NNE 5.2mph /  8.4km/h 10.4mph /  16.7km/h 52% 0in /  0.0mm
22:24 82.6 °F /  28.1 °C 63.7 °F /  17.6 °C 29.9in /  1012.8hPa ENE 5.2mph /  8.4km/h 8.1mph /  13km/h 53% 0in /  0.0mm
22:29 82.4 °F /  28 °C 64 °F /  17.8 °C 29.9in /  1012.8hPa NE 5.2mph /  8.4km/h 8.1mph /  13km/h 54% 0in /  0.0mm
22:34 82.2 °F /  27.9 °C 64.4 °F /  18 °C 29.9in /  1013.0hPa NNE 5.2mph /  8.4km/h 8.1mph /  13km/h 55% 0in /  0.0mm
22:39 82 °F /  27.8 °C 64.8 °F /  18.2 °C 29.9in /  1013.0hPa NE 5.2mph /  8.4km/h 9.2mph /  14.8km/h 56% 0in /  0.0mm
22:44 81.9 °F /  27.7 °C 65.1 °F /  18.4 °C 29.9in /  1013.0hPa NNE 5.2mph /  8.4km/h 6.9mph /  11.1km/h 57% 0in /  0.0mm
22:49 81.7 °F /  27.6 °C 66 °F /  18.9 °C 29.9in /  1013.1hPa NE 4.7mph /  7.6km/h 9.2mph /  14.8km/h 59% 0in /  0.0mm
22:54 81.3 °F /  27.4 °C 66 °F /  18.9 °C 29.9in /  1013.1hPa ENE 4.7mph /  7.6km/h 8.1mph /  13km/h 60% 0in /  0.0mm
22:59 81.1 °F /  27.3 °C 66.4 °F /  19.1 °C 29.9in /  1013.1hPa ESE 5.9mph /  9.5km/h 9.2mph /  14.8km/h 61% 0in /  0.0mm
23:04 81 °F /  27.2 °C 66.7 °F /  19.3 °C 29.9in /  1013.2hPa NE 5.9mph /  9.5km/h 9.2mph /  14.8km/h 62% 0in /  0.0mm
23:09 80.8 °F /  27.1 °C 66.6 °F /  19.2 °C 29.9in /  1013.2hPa Este 5.2mph /  8.4km/h 8.1mph /  13km/h 62% 0in /  0.0mm
23:14 80.8 °F /  27.1 °C 66.9 °F /  19.4 °C 29.9in /  1013.2hPa NNE 5.2mph /  8.4km/h 8.1mph /  13km/h 63% 0in /  0.0mm
23:19 80.6 °F /  27 °C 66.7 °F /  19.3 °C 29.9in /  1013.3hPa NE 4.3mph /  6.9km/h 6.9mph /  11.1km/h 63% 0in /  0.0mm
23:24 80.6 °F /  27 °C 66.7 °F /  19.3 °C 29.9in /  1013.3hPa ENE 4.3mph /  6.9km/h 8.5mph /  13.7km/h 63% 0in /  0.0mm
23:29 80.4 °F /  26.9 °C 66.7 °F /  19.3 °C 29.9in /  1013.3hPa ENE 5.2mph /  8.4km/h 5.8mph /  9.3km/h 63% 0in /  0.0mm
23:34 80.4 °F /  26.9 °C 66.7 °F /  19.3 °C 29.9in /  1013.3hPa Este 5.2mph /  8.4km/h 6.9mph /  11.1km/h 63% 0in /  0.0mm
23:39 80.4 °F /  26.9 °C 66.7 °F /  19.3 °C 29.9in /  1013.3hPa ENE 3.6mph /  5.8km/h 4.7mph /  7.6km/h 63% 0in /  0.0mm
23:44 80.4 °F /  26.9 °C 66.7 °F /  19.3 °C 29.9in /  1013.3hPa NE 3.6mph /  5.8km/h 5.8mph /  9.3km/h 63% 0in /  0.0mm
23:49 80.4 °F /  26.9 °C 66.7 °F /  19.3 °C 29.9in /  1013.3hPa NE 3.6mph /  5.8km/h 5.8mph /  9.3km/h 63% 0in /  0.0mm
23:54 80.2 °F /  26.8 °C 66.6 °F /  19.2 °C 29.9in /  1013.3hPa NE 3.6mph /  5.8km/h 6.9mph /  11.1km/h 63% 0in /  0.0mm
23:59 80.2 °F /  26.8 °C 66.6 °F /  19.2 °C 29.9in /  1013.3hPa Este 4.3mph /  6.9km/h 8.1mph /  13km/h 63% 0in /  0.0mm
Murcia-Puente Tocinos, España
Compliments of Weather Underground - 3.5 mb

La estación de MeteoMurcia.com, publica sus datos en los siguientes proyectos:

Weather Underground PWS IMURCIAP2 Meteoclimatic www.awekas.at

W3Counter
Web Analytics